sensor_id;sensor_type;location;lat;lon;timestamp;temperature;humidity
73780;SHT30;62093;37.614;15.072;2023-03-19T00:01:54;15.68;60.73
73780;SHT30;62093;37.614;15.072;2023-03-19T00:04:20;15.65;60.60
73780;SHT30;62093;37.614;15.072;2023-03-19T00:06:46;15.70;60.65
73780;SHT30;62093;37.614;15.072;2023-03-19T00:09:12;15.65;60.52
73780;SHT30;62093;37.614;15.072;2023-03-19T00:11:38;15.68;60.65
73780;SHT30;62093;37.614;15.072;2023-03-19T00:14:05;15.63;60.72
73780;SHT30;62093;37.614;15.072;2023-03-19T00:16:31;15.64;60.73
73780;SHT30;62093;37.614;15.072;2023-03-19T00:18:57;15.63;60.64
73780;SHT30;62093;37.614;15.072;2023-03-19T00:21:22;15.61;60.72
73780;SHT30;62093;37.614;15.072;2023-03-19T00:23:48;15.64;60.71
73780;SHT30;62093;37.614;15.072;2023-03-19T00:26:14;15.64;60.74
73780;SHT30;62093;37.614;15.072;2023-03-19T00:28:40;15.63;60.78
73780;SHT30;62093;37.614;15.072;2023-03-19T00:31:08;15.63;60.66
73780;SHT30;62093;37.614;15.072;2023-03-19T00:33:34;15.63;60.71
73780;SHT30;62093;37.614;15.072;2023-03-19T00:36:00;15.58;60.71
73780;SHT30;62093;37.614;15.072;2023-03-19T00:38:26;15.63;60.70
73780;SHT30;62093;37.614;15.072;2023-03-19T00:40:52;15.60;60.62
73780;SHT30;62093;37.614;15.072;2023-03-19T00:43:18;15.61;60.65
73780;SHT30;62093;37.614;15.072;2023-03-19T00:45:45;15.63;60.69
73780;SHT30;62093;37.614;15.072;2023-03-19T00:48:11;15.57;60.68
73780;SHT30;62093;37.614;15.072;2023-03-19T00:50:37;15.61;60.70
73780;SHT30;62093;37.614;15.072;2023-03-19T00:53:03;15.55;60.72
73780;SHT30;62093;37.614;15.072;2023-03-19T00:55:28;15.55;60.82
73780;SHT30;62093;37.614;15.072;2023-03-19T00:57:54;15.55;60.71
73780;SHT30;62093;37.614;15.072;2023-03-19T01:00:20;15.60;60.72
73780;SHT30;62093;37.614;15.072;2023-03-19T01:02:46;15.54;60.78
73780;SHT30;62093;37.614;15.072;2023-03-19T01:05:12;15.55;60.69
73780;SHT30;62093;37.614;15.072;2023-03-19T01:07:38;15.53;60.83
73780;SHT30;62093;37.614;15.072;2023-03-19T01:10:05;15.53;60.75
73780;SHT30;62093;37.614;15.072;2023-03-19T01:12:32;15.53;60.68
73780;SHT30;62093;37.614;15.072;2023-03-19T01:14:58;15.53;60.69
73780;SHT30;62093;37.614;15.072;2023-03-19T01:17:25;15.53;60.80
73780;SHT30;62093;37.614;15.072;2023-03-19T01:19:50;15.51;60.87
73780;SHT30;62093;37.614;15.072;2023-03-19T01:22:17;15.54;60.78
73780;SHT30;62093;37.614;15.072;2023-03-19T01:24:48;15.51;60.83
73780;SHT30;62093;37.614;15.072;2023-03-19T01:27:17;15.49;60.82
73780;SHT30;62093;37.614;15.072;2023-03-19T01:29:43;15.49;60.87
73780;SHT30;62093;37.614;15.072;2023-03-19T01:32:18;15.50;60.90
73780;SHT30;62093;37.614;15.072;2023-03-19T01:35:04;15.50;60.88
73780;SHT30;62093;37.614;15.072;2023-03-19T01:37:31;15.51;60.83
73780;SHT30;62093;37.614;15.072;2023-03-19T01:39:57;15.51;60.85
73780;SHT30;62093;37.614;15.072;2023-03-19T01:42:23;15.51;60.94
73780;SHT30;62093;37.614;15.072;2023-03-19T01:45:35;15.54;60.74
73780;SHT30;62093;37.614;15.072;2023-03-19T01:51:07;15.46;60.82
73780;SHT30;62093;37.614;15.072;2023-03-19T01:54:10;15.49;60.93
73780;SHT30;62093;37.614;15.072;2023-03-19T01:56:58;15.49;60.88
73780;SHT30;62093;37.614;15.072;2023-03-19T01:59:47;15.49;60.87
73780;SHT30;62093;37.614;15.072;2023-03-19T02:02:33;15.46;60.99
73780;SHT30;62093;37.614;15.072;2023-03-19T02:05:12;15.47;60.83
73780;SHT30;62093;37.614;15.072;2023-03-19T02:07:43;15.47;60.82
73780;SHT30;62093;37.614;15.072;2023-03-19T02:10:12;15.49;60.77
73780;SHT30;62093;37.614;15.072;2023-03-19T02:12:39;15.47;60.83
73780;SHT30;62093;37.614;15.072;2023-03-19T02:15:06;15.49;61.02
73780;SHT30;62093;37.614;15.072;2023-03-19T02:17:33;15.47;60.77
73780;SHT30;62093;37.614;15.072;2023-03-19T02:26:30;15.44;60.94
73780;SHT30;62093;37.614;15.072;2023-03-19T02:29:01;15.46;60.69
73780;SHT30;62093;37.614;15.072;2023-03-19T02:31:32;15.44;61.05
73780;SHT30;62093;37.614;15.072;2023-03-19T02:34:31;15.44;60.87
73780;SHT30;62093;37.614;15.072;2023-03-19T02:37:06;15.44;60.78
73780;SHT30;62093;37.614;15.072;2023-03-19T02:39:48;15.44;60.92
73780;SHT30;62093;37.614;15.072;2023-03-19T02:42:16;15.40;60.87
73780;SHT30;62093;37.614;15.072;2023-03-19T02:44:43;15.40;60.95
73780;SHT30;62093;37.614;15.072;2023-03-19T02:47:09;15.41;61.07
73780;SHT30;62093;37.614;15.072;2023-03-19T02:49:35;15.40;61.09
73780;SHT30;62093;37.614;15.072;2023-03-19T02:52:01;15.40;60.91
73780;SHT30;62093;37.614;15.072;2023-03-19T02:54:27;15.39;61.09
73780;SHT30;62093;37.614;15.072;2023-03-19T02:56:53;15.39;60.93
73780;SHT30;62093;37.614;15.072;2023-03-19T02:59:19;15.37;60.96
73780;SHT30;62093;37.614;15.072;2023-03-19T03:01:46;15.39;61.10
73780;SHT30;62093;37.614;15.072;2023-03-19T03:04:15;15.37;61.01
73780;SHT30;62093;37.614;15.072;2023-03-19T03:06:42;15.36;61.12
73780;SHT30;62093;37.614;15.072;2023-03-19T03:09:10;15.34;61.11
73780;SHT30;62093;37.614;15.072;2023-03-19T03:11:37;15.33;61.02
73780;SHT30;62093;37.614;15.072;2023-03-19T03:14:03;15.37;60.99
73780;SHT30;62093;37.614;15.072;2023-03-19T03:16:29;15.34;61.09
73780;SHT30;62093;37.614;15.072;2023-03-19T03:18:55;15.36;60.99
73780;SHT30;62093;37.614;15.072;2023-03-19T03:21:21;15.36;61.10
73780;SHT30;62093;37.614;15.072;2023-03-19T03:23:47;15.37;61.04
73780;SHT30;62093;37.614;15.072;2023-03-19T03:26:13;15.33;61.01
73780;SHT30;62093;37.614;15.072;2023-03-19T03:28:39;15.34;61.08
73780;SHT30;62093;37.614;15.072;2023-03-19T03:31:06;15.31;61.02
73780;SHT30;62093;37.614;15.072;2023-03-19T03:33:32;15.33;61.21
73780;SHT30;62093;37.614;15.072;2023-03-19T03:35:58;15.31;61.10
73780;SHT30;62093;37.614;15.072;2023-03-19T03:38:24;15.30;61.17
73780;SHT30;62093;37.614;15.072;2023-03-19T03:40:52;15.33;61.07
73780;SHT30;62093;37.614;15.072;2023-03-19T03:43:20;15.34;61.09
73780;SHT30;62093;37.614;15.072;2023-03-19T03:45:46;15.34;61.25
73780;SHT30;62093;37.614;15.072;2023-03-19T03:48:15;15.33;61.04
73780;SHT30;62093;37.614;15.072;2023-03-19T03:50:41;15.33;61.10
73780;SHT30;62093;37.614;15.072;2023-03-19T03:53:10;15.33;61.03
73780;SHT30;62093;37.614;15.072;2023-03-19T03:55:38;15.31;61.04
73780;SHT30;62093;37.614;15.072;2023-03-19T03:58:04;15.29;60.97
73780;SHT30;62093;37.614;15.072;2023-03-19T04:00:30;15.31;61.06
73780;SHT30;62093;37.614;15.072;2023-03-19T04:02:56;15.30;61.01
73780;SHT30;62093;37.614;15.072;2023-03-19T04:05:23;15.30;61.09
73780;SHT30;62093;37.614;15.072;2023-03-19T04:07:50;15.30;61.04
73780;SHT30;62093;37.614;15.072;2023-03-19T04:10:17;15.31;61.10
73780;SHT30;62093;37.614;15.072;2023-03-19T04:12:44;15.33;61.14
73780;SHT30;62093;37.614;15.072;2023-03-19T04:15:11;15.31;61.00
73780;SHT30;62093;37.614;15.072;2023-03-19T04:17:40;15.30;61.16
73780;SHT30;62093;37.614;15.072;2023-03-19T04:20:08;15.30;61.08
73780;SHT30;62093;37.614;15.072;2023-03-19T04:22:37;15.30;61.18
73780;SHT30;62093;37.614;15.072;2023-03-19T04:25:04;15.30;61.12
73780;SHT30;62093;37.614;15.072;2023-03-19T04:27:30;15.30;61.10
73780;SHT30;62093;37.614;15.072;2023-03-19T04:29:56;15.30;61.17
73780;SHT30;62093;37.614;15.072;2023-03-19T04:32:23;15.31;61.15
73780;SHT30;62093;37.614;15.072;2023-03-19T04:34:50;15.31;61.19
73780;SHT30;62093;37.614;15.072;2023-03-19T04:37:17;15.33;61.10
73780;SHT30;62093;37.614;15.072;2023-03-19T04:39:47;15.30;61.22
73780;SHT30;62093;37.614;15.072;2023-03-19T04:42:14;15.31;61.19
73780;SHT30;62093;37.614;15.072;2023-03-19T04:45:03;15.33;61.10
73780;SHT30;62093;37.614;15.072;2023-03-19T04:47:30;15.30;61.14
73780;SHT30;62093;37.614;15.072;2023-03-19T04:49:58;15.33;61.18
73780;SHT30;62093;37.614;15.072;2023-03-19T04:52:25;15.31;61.14
73780;SHT30;62093;37.614;15.072;2023-03-19T04:54:51;15.31;61.18
73780;SHT30;62093;37.614;15.072;2023-03-19T04:57:17;15.34;61.16
73780;SHT30;62093;37.614;15.072;2023-03-19T04:59:45;15.31;61.02
73780;SHT30;62093;37.614;15.072;2023-03-19T05:02:13;15.31;61.19
73780;SHT30;62093;37.614;15.072;2023-03-19T05:04:40;15.33;61.05
73780;SHT30;62093;37.614;15.072;2023-03-19T05:07:11;15.31;60.94
73780;SHT30;62093;37.614;15.072;2023-03-19T05:09:37;15.30;60.87
73780;SHT30;62093;37.614;15.072;2023-03-19T05:12:03;15.31;61.07
73780;SHT30;62093;37.614;15.072;2023-03-19T05:14:35;15.31;61.04
73780;SHT30;62093;37.614;15.072;2023-03-19T05:17:16;15.36;61.04
73780;SHT30;62093;37.614;15.072;2023-03-19T05:19:59;15.39;60.89
73780;SHT30;62093;37.614;15.072;2023-03-19T05:22:25;15.36;60.88
73780;SHT30;62093;37.614;15.072;2023-03-19T05:24:53;15.39;60.89
73780;SHT30;62093;37.614;15.072;2023-03-19T05:27:19;15.37;60.87
73780;SHT30;62093;37.614;15.072;2023-03-19T05:29:51;15.39;60.75
73780;SHT30;62093;37.614;15.072;2023-03-19T05:32:23;15.40;60.84
73780;SHT30;62093;37.614;15.072;2023-03-19T05:34:50;15.39;60.74
73780;SHT30;62093;37.614;15.072;2023-03-19T05:37:17;15.41;60.74
73780;SHT30;62093;37.614;15.072;2023-03-19T05:39:56;15.40;60.82
73780;SHT30;62093;37.614;15.072;2023-03-19T05:42:22;15.40;60.87
73780;SHT30;62093;37.614;15.072;2023-03-19T05:44:49;15.43;60.64
73780;SHT30;62093;37.614;15.072;2023-03-19T05:47:35;15.43;60.56
73780;SHT30;62093;37.614;15.072;2023-03-19T05:50:01;15.43;60.82
73780;SHT30;62093;37.614;15.072;2023-03-19T05:52:29;15.41;60.59
73780;SHT30;62093;37.614;15.072;2023-03-19T05:54:58;15.43;60.83
73780;SHT30;62093;37.614;15.072;2023-03-19T05:57:40;15.47;60.80
73780;SHT30;62093;37.614;15.072;2023-03-19T06:00:19;15.46;60.65
73780;SHT30;62093;37.614;15.072;2023-03-19T06:02:46;15.49;60.65
73780;SHT30;62093;37.614;15.072;2023-03-19T06:05:32;15.47;60.81
73780;SHT30;62093;37.614;15.072;2023-03-19T06:08:05;15.47;60.79
73780;SHT30;62093;37.614;15.072;2023-03-19T06:10:49;15.50;60.62
73780;SHT30;62093;37.614;15.072;2023-03-19T06:13:17;15.51;60.61
73780;SHT30;62093;37.614;15.072;2023-03-19T06:16:03;15.51;60.71
73780;SHT30;62093;37.614;15.072;2023-03-19T06:18:44;15.54;60.59
73780;SHT30;62093;37.614;15.072;2023-03-19T06:21:13;15.55;60.68
73780;SHT30;62093;37.614;15.072;2023-03-19T06:23:39;15.55;60.54
73780;SHT30;62093;37.614;15.072;2023-03-19T06:26:06;15.57;60.40
73780;SHT30;62093;37.614;15.072;2023-03-19T06:28:48;15.53;60.58
73780;SHT30;62093;37.614;15.072;2023-03-19T06:31:15;15.57;60.35
73780;SHT30;62093;37.614;15.072;2023-03-19T06:33:54;15.58;60.57
73780;SHT30;62093;37.614;15.072;2023-03-19T06:36:23;15.61;60.41
73780;SHT30;62093;37.614;15.072;2023-03-19T06:38:51;15.57;60.45
73780;SHT30;62093;37.614;15.072;2023-03-19T06:41:17;15.60;60.35
73780;SHT30;62093;37.614;15.072;2023-03-19T06:43:44;15.61;60.52
73780;SHT30;62093;37.614;15.072;2023-03-19T06:46:10;15.60;60.47
73780;SHT30;62093;37.614;15.072;2023-03-19T06:48:36;15.61;60.19
73780;SHT30;62093;37.614;15.072;2023-03-19T06:51:02;15.58;60.29
73780;SHT30;62093;37.614;15.072;2023-03-19T06:53:28;15.60;60.46
73780;SHT30;62093;37.614;15.072;2023-03-19T06:55:54;15.61;60.62
73780;SHT30;62093;37.614;15.072;2023-03-19T06:58:20;15.60;60.42
73780;SHT30;62093;37.614;15.072;2023-03-19T07:00:46;15.61;60.44
73780;SHT30;62093;37.614;15.072;2023-03-19T07:03:12;15.60;60.50
73780;SHT30;62093;37.614;15.072;2023-03-19T07:05:38;15.61;60.40
73780;SHT30;62093;37.614;15.072;2023-03-19T07:08:04;15.61;60.29
73780;SHT30;62093;37.614;15.072;2023-03-19T07:10:39;15.65;60.45
73780;SHT30;62093;37.614;15.072;2023-03-19T07:13:05;15.64;60.37
73780;SHT30;62093;37.614;15.072;2023-03-19T07:15:32;15.67;60.54
73780;SHT30;62093;37.614;15.072;2023-03-19T07:17:58;15.63;60.20
73780;SHT30;62093;37.614;15.072;2023-03-19T07:20:24;15.64;60.18
73780;SHT30;62093;37.614;15.072;2023-03-19T07:22:50;15.64;60.21
73780;SHT30;62093;37.614;15.072;2023-03-19T07:25:16;15.64;60.26
73780;SHT30;62093;37.614;15.072;2023-03-19T07:27:43;15.68;59.94
73780;SHT30;62093;37.614;15.072;2023-03-19T07:30:09;15.65;60.06
73780;SHT30;62093;37.614;15.072;2023-03-19T07:32:36;15.67;60.11
73780;SHT30;62093;37.614;15.072;2023-03-19T07:35:04;15.67;59.82
73780;SHT30;62093;37.614;15.072;2023-03-19T07:37:30;15.70;59.99
73780;SHT30;62093;37.614;15.072;2023-03-19T07:39:56;15.67;59.97
73780;SHT30;62093;37.614;15.072;2023-03-19T07:42:22;15.71;60.27
73780;SHT30;62093;37.614;15.072;2023-03-19T07:44:51;15.70;60.26
73780;SHT30;62093;37.614;15.072;2023-03-19T07:47:17;15.70;60.29
73780;SHT30;62093;37.614;15.072;2023-03-19T07:49:43;15.72;60.28
73780;SHT30;62093;37.614;15.072;2023-03-19T07:52:09;15.71;60.16
73780;SHT30;62093;37.614;15.072;2023-03-19T07:54:35;15.68;60.18
73780;SHT30;62093;37.614;15.072;2023-03-19T07:57:01;15.68;60.08
73780;SHT30;62093;37.614;15.072;2023-03-19T07:59:27;15.72;60.13
73780;SHT30;62093;37.614;15.072;2023-03-19T08:01:55;15.72;59.99
73780;SHT30;62093;37.614;15.072;2023-03-19T08:04:21;15.72;60.19
73780;SHT30;62093;37.614;15.072;2023-03-19T08:06:47;15.72;60.09
73780;SHT30;62093;37.614;15.072;2023-03-19T08:09:13;15.74;59.99
73780;SHT30;62093;37.614;15.072;2023-03-19T08:11:39;15.74;60.22
73780;SHT30;62093;37.614;15.072;2023-03-19T08:14:08;15.75;60.19
73780;SHT30;62093;37.614;15.072;2023-03-19T08:16:34;15.77;60.14
73780;SHT30;62093;37.614;15.072;2023-03-19T08:18:59;15.78;59.86
73780;SHT30;62093;37.614;15.072;2023-03-19T08:21:26;15.75;60.11
73780;SHT30;62093;37.614;15.072;2023-03-19T08:23:52;15.81;60.23
73780;SHT30;62093;37.614;15.072;2023-03-19T08:26:18;15.78;60.16
73780;SHT30;62093;37.614;15.072;2023-03-19T08:28:43;15.77;60.03
73780;SHT30;62093;37.614;15.072;2023-03-19T08:31:11;15.84;59.76
73780;SHT30;62093;37.614;15.072;2023-03-19T08:33:38;15.84;59.88
73780;SHT30;62093;37.614;15.072;2023-03-19T08:36:10;15.81;59.63
73780;SHT30;62093;37.614;15.072;2023-03-19T08:38:37;15.81;60.03
73780;SHT30;62093;37.614;15.072;2023-03-19T08:41:04;15.82;59.95
73780;SHT30;62093;37.614;15.072;2023-03-19T08:43:31;15.82;59.96
73780;SHT30;62093;37.614;15.072;2023-03-19T08:45:58;15.82;59.98
73780;SHT30;62093;37.614;15.072;2023-03-19T08:48:25;15.84;60.14
73780;SHT30;62093;37.614;15.072;2023-03-19T08:50:55;15.82;59.85
73780;SHT30;62093;37.614;15.072;2023-03-19T08:53:22;15.87;60.02
73780;SHT30;62093;37.614;15.072;2023-03-19T08:56:02;15.87;60.16
73780;SHT30;62093;37.614;15.072;2023-03-19T08:58:28;15.87;59.83
73780;SHT30;62093;37.614;15.072;2023-03-19T09:01:07;15.94;59.87
73780;SHT30;62093;37.614;15.072;2023-03-19T09:03:34;15.90;59.96
73780;SHT30;62093;37.614;15.072;2023-03-19T09:06:01;15.92;60.02
73780;SHT30;62093;37.614;15.072;2023-03-19T09:08:28;15.90;59.96
73780;SHT30;62093;37.614;15.072;2023-03-19T09:10:54;15.92;59.91
73780;SHT30;62093;37.614;15.072;2023-03-19T09:13:20;15.94;59.86
73780;SHT30;62093;37.614;15.072;2023-03-19T09:15:46;15.91;59.84
73780;SHT30;62093;37.614;15.072;2023-03-19T09:18:12;15.94;59.99
73780;SHT30;62093;37.614;15.072;2023-03-19T09:20:38;15.95;59.95
73780;SHT30;62093;37.614;15.072;2023-03-19T09:23:04;15.98;59.86
73780;SHT30;62093;37.614;15.072;2023-03-19T09:25:30;15.94;59.85
73780;SHT30;62093;37.614;15.072;2023-03-19T09:27:56;15.95;59.84
73780;SHT30;62093;37.614;15.072;2023-03-19T09:30:22;15.95;59.92
73780;SHT30;62093;37.614;15.072;2023-03-19T09:32:48;15.98;59.87
73780;SHT30;62093;37.614;15.072;2023-03-19T09:35:14;16.00;59.89
73780;SHT30;62093;37.614;15.072;2023-03-19T09:37:40;15.98;59.93
73780;SHT30;62093;37.614;15.072;2023-03-19T09:40:09;16.01;59.93
73780;SHT30;62093;37.614;15.072;2023-03-19T09:42:59;16.02;59.96
73780;SHT30;62093;37.614;15.072;2023-03-19T09:45:31;16.00;59.91
73780;SHT30;62093;37.614;15.072;2023-03-19T09:48:14;16.01;59.86
73780;SHT30;62093;37.614;15.072;2023-03-19T09:50:43;16.00;59.90
73780;SHT30;62093;37.614;15.072;2023-03-19T09:55:51;16.04;59.79
73780;SHT30;62093;37.614;15.072;2023-03-19T09:58:28;16.05;59.87
73780;SHT30;62093;37.614;15.072;2023-03-19T10:00:55;16.05;59.84
73780;SHT30;62093;37.614;15.072;2023-03-19T10:03:50;16.08;59.82
73780;SHT30;62093;37.614;15.072;2023-03-19T10:17:14;16.13;59.83
73780;SHT30;62093;37.614;15.072;2023-03-19T10:19:49;16.11;59.80
73780;SHT30;62093;37.614;15.072;2023-03-19T10:22:37;16.12;59.80
73780;SHT30;62093;37.614;15.072;2023-03-19T10:25:09;16.12;59.82
73780;SHT30;62093;37.614;15.072;2023-03-19T10:27:36;16.12;59.83
73780;SHT30;62093;37.614;15.072;2023-03-19T10:30:14;16.13;59.83
73780;SHT30;62093;37.614;15.072;2023-03-19T10:32:42;16.15;59.81
73780;SHT30;62093;37.614;15.072;2023-03-19T10:36:14;16.13;59.81
73780;SHT30;62093;37.614;15.072;2023-03-19T10:38:24;16.16;59.81
73780;SHT30;62093;37.614;15.072;2023-03-19T10:46:43;16.15;59.80
73780;SHT30;62093;37.614;15.072;2023-03-19T10:49:13;16.18;59.80
73780;SHT30;62093;37.614;15.072;2023-03-19T10:51:43;16.21;59.80
73780;SHT30;62093;37.614;15.072;2023-03-19T10:56:45;16.22;59.82
73780;SHT30;62093;37.614;15.072;2023-03-19T10:59:30;16.21;59.75
73780;SHT30;62093;37.614;15.072;2023-03-19T11:02:23;16.19;59.80
73780;SHT30;62093;37.614;15.072;2023-03-19T11:07:37;16.22;59.76
73780;SHT30;62093;37.614;15.072;2023-03-19T11:10:04;16.21;59.74
73780;SHT30;62093;37.614;15.072;2023-03-19T11:12:36;16.21;59.74
73780;SHT30;62093;37.614;15.072;2023-03-19T11:15:15;16.19;59.78
73780;SHT30;62093;37.614;15.072;2023-03-19T11:17:47;16.21;59.78
73780;SHT30;62093;37.614;15.072;2023-03-19T11:20:26;16.23;59.74
73780;SHT30;62093;37.614;15.072;2023-03-19T11:22:54;16.22;59.74
73780;SHT30;62093;37.614;15.072;2023-03-19T11:25:35;16.23;59.76
73780;SHT30;62093;37.614;15.072;2023-03-19T11:28:08;16.25;59.76
73780;SHT30;62093;37.614;15.072;2023-03-19T11:39:22;16.26;59.75
73780;SHT30;62093;37.614;15.072;2023-03-19T11:50:35;16.26;59.84
73780;SHT30;62093;37.614;15.072;2023-03-19T11:55:56;16.29;59.71
73780;SHT30;62093;37.614;15.072;2023-03-19T11:58:43;16.30;59.68
73780;SHT30;62093;37.614;15.072;2023-03-19T12:09:59;16.33;59.64
73780;SHT30;62093;37.614;15.072;2023-03-19T12:12:45;16.33;59.67
73780;SHT30;62093;37.614;15.072;2023-03-19T12:29:26;16.36;59.61
73780;SHT30;62093;37.614;15.072;2023-03-19T12:34:59;16.38;59.67
73780;SHT30;62093;37.614;15.072;2023-03-19T12:38:09;16.41;59.63
73780;SHT30;62093;37.614;15.072;2023-03-19T12:46:18;16.42;59.70
73780;SHT30;62093;37.614;15.072;2023-03-19T12:48:53;16.43;59.80
73780;SHT30;62093;37.614;15.072;2023-03-19T12:51:26;16.45;59.93
73780;SHT30;62093;37.614;15.072;2023-03-19T12:54:26;16.43;59.76
73780;SHT30;62093;37.614;15.072;2023-03-19T12:57:11;16.45;59.57
73780;SHT30;62093;37.614;15.072;2023-03-19T12:59:51;16.46;59.72
73780;SHT30;62093;37.614;15.072;2023-03-19T13:07:59;16.46;59.68
73780;SHT30;62093;37.614;15.072;2023-03-19T13:10:31;16.46;59.77
73780;SHT30;62093;37.614;15.072;2023-03-19T13:12:59;16.45;59.62
73780;SHT30;62093;37.614;15.072;2023-03-19T13:21:23;16.48;59.64
73780;SHT30;62093;37.614;15.072;2023-03-19T13:24:20;16.51;59.59
73780;SHT30;62093;37.614;15.072;2023-03-19T13:26:48;16.52;59.54
73780;SHT30;62093;37.614;15.072;2023-03-19T13:31:47;16.51;59.59
73780;SHT30;62093;37.614;15.072;2023-03-19T13:36:46;16.52;59.60
73780;SHT30;62093;37.614;15.072;2023-03-19T13:39:25;16.52;59.53
73780;SHT30;62093;37.614;15.072;2023-03-19T13:41:57;16.53;59.50
73780;SHT30;62093;37.614;15.072;2023-03-19T13:44:42;16.53;59.51
73780;SHT30;62093;37.614;15.072;2023-03-19T13:47:37;16.53;59.59
73780;SHT30;62093;37.614;15.072;2023-03-19T13:52:48;16.55;59.51
73780;SHT30;62093;37.614;15.072;2023-03-19T13:57:58;16.56;59.48
73780;SHT30;62093;37.614;15.072;2023-03-19T14:03:21;16.53;59.48
73780;SHT30;62093;37.614;15.072;2023-03-19T14:05:53;16.53;59.39
73780;SHT30;62093;37.614;15.072;2023-03-19T14:08:31;16.56;59.39
73780;SHT30;62093;37.614;15.072;2023-03-19T14:11:00;16.55;59.44
73780;SHT30;62093;37.614;15.072;2023-03-19T14:13:33;16.59;59.48
73780;SHT30;62093;37.614;15.072;2023-03-19T14:16:08;16.57;59.51
73780;SHT30;62093;37.614;15.072;2023-03-19T14:18:39;16.55;59.42
73780;SHT30;62093;37.614;15.072;2023-03-19T14:21:12;16.56;59.41
73780;SHT30;62093;37.614;15.072;2023-03-19T14:23:40;16.56;59.35
73780;SHT30;62093;37.614;15.072;2023-03-19T14:26:16;16.57;59.35
73780;SHT30;62093;37.614;15.072;2023-03-19T14:39:44;16.57;59.32
73780;SHT30;62093;37.614;15.072;2023-03-19T14:42:26;16.57;59.27
73780;SHT30;62093;37.614;15.072;2023-03-19T14:50:25;16.60;59.27
73780;SHT30;62093;37.614;15.072;2023-03-19T14:53:34;16.60;59.21
73780;SHT30;62093;37.614;15.072;2023-03-19T14:55:41;16.62;59.30
73780;SHT30;62093;37.614;15.072;2023-03-19T14:58:10;16.57;59.19
73780;SHT30;62093;37.614;15.072;2023-03-19T15:00:48;16.62;59.21
73780;SHT30;62093;37.614;15.072;2023-03-19T15:05:57;16.62;59.29
73780;SHT30;62093;37.614;15.072;2023-03-19T15:08:24;16.62;59.21
73780;SHT30;62093;37.614;15.072;2023-03-19T15:16:30;16.62;59.21
73780;SHT30;62093;37.614;15.072;2023-03-19T15:18:58;16.60;59.21
73780;SHT30;62093;37.614;15.072;2023-03-19T15:21:24;16.62;59.29
73780;SHT30;62093;37.614;15.072;2023-03-19T15:23:50;16.57;59.20
73780;SHT30;62093;37.614;15.072;2023-03-19T15:26:31;16.60;59.24
73780;SHT30;62093;37.614;15.072;2023-03-19T15:28:57;16.59;59.18
73780;SHT30;62093;37.614;15.072;2023-03-19T15:31:40;16.57;59.11
73780;SHT30;62093;37.614;15.072;2023-03-19T15:34:23;16.59;59.23
73780;SHT30;62093;37.614;15.072;2023-03-19T15:36:57;16.57;59.22
73780;SHT30;62093;37.614;15.072;2023-03-19T15:39:27;16.59;59.30
73780;SHT30;62093;37.614;15.072;2023-03-19T15:41:54;16.59;59.28
73780;SHT30;62093;37.614;15.072;2023-03-19T15:46:56;16.57;59.28
73780;SHT30;62093;37.614;15.072;2023-03-19T15:49:27;16.56;59.27
73780;SHT30;62093;37.614;15.072;2023-03-19T15:51:57;16.56;59.27
73780;SHT30;62093;37.614;15.072;2023-03-19T15:54:24;16.55;59.26
73780;SHT30;62093;37.614;15.072;2023-03-19T15:56:51;16.56;59.27
73780;SHT30;62093;37.614;15.072;2023-03-19T15:59:20;16.55;59.34
73780;SHT30;62093;37.614;15.072;2023-03-19T16:01:48;16.55;59.31
73780;SHT30;62093;37.614;15.072;2023-03-19T16:04:18;16.55;59.31
73780;SHT30;62093;37.614;15.072;2023-03-19T16:06:48;16.51;59.35
73780;SHT30;62093;37.614;15.072;2023-03-19T16:11:49;16.52;59.44
73780;SHT30;62093;37.614;15.072;2023-03-19T16:14:40;16.49;59.41
73780;SHT30;62093;37.614;15.072;2023-03-19T16:17:12;16.46;59.41
73780;SHT30;62093;37.614;15.072;2023-03-19T16:19:53;16.49;59.44
73780;SHT30;62093;37.614;15.072;2023-03-19T16:22:23;16.49;59.49
73780;SHT30;62093;37.614;15.072;2023-03-19T16:24:51;16.51;59.52
73780;SHT30;62093;37.614;15.072;2023-03-19T16:27:25;16.51;59.53
73780;SHT30;62093;37.614;15.072;2023-03-19T16:29:58;16.51;59.57
73780;SHT30;62093;37.614;15.072;2023-03-19T16:32:29;16.48;59.63
73780;SHT30;62093;37.614;15.072;2023-03-19T16:35:02;16.45;59.68
73780;SHT30;62093;37.614;15.072;2023-03-19T16:37:44;16.48;59.68
73780;SHT30;62093;37.614;15.072;2023-03-19T16:50:09;16.46;59.89
73780;SHT30;62093;37.614;15.072;2023-03-19T16:52:35;16.46;59.89
73780;SHT30;62093;37.614;15.072;2023-03-19T16:55:03;16.42;59.97
73780;SHT30;62093;37.614;15.072;2023-03-19T16:57:30;16.43;59.96
73780;SHT30;62093;37.614;15.072;2023-03-19T16:59:56;16.43;59.94
73780;SHT30;62093;37.614;15.072;2023-03-19T17:02:22;16.43;59.95
73780;SHT30;62093;37.614;15.072;2023-03-19T17:04:48;16.43;60.05
73780;SHT30;62093;37.614;15.072;2023-03-19T17:07:14;16.43;60.11
73780;SHT30;62093;37.614;15.072;2023-03-19T17:09:40;16.41;60.14
73780;SHT30;62093;37.614;15.072;2023-03-19T17:12:07;16.42;60.14
73780;SHT30;62093;37.614;15.072;2023-03-19T17:14:37;16.42;60.24
73780;SHT30;62093;37.614;15.072;2023-03-19T17:19:37;16.41;60.37
73780;SHT30;62093;37.614;15.072;2023-03-19T17:22:04;16.41;60.39
73780;SHT30;62093;37.614;15.072;2023-03-19T17:24:32;16.39;60.41
73780;SHT30;62093;37.614;15.072;2023-03-19T17:27:00;16.41;60.46
73780;SHT30;62093;37.614;15.072;2023-03-19T17:29:27;16.39;60.52
73780;SHT30;62093;37.614;15.072;2023-03-19T17:31:58;16.39;60.59
73780;SHT30;62093;37.614;15.072;2023-03-19T17:34:27;16.39;60.60
73780;SHT30;62093;37.614;15.072;2023-03-19T17:36:59;16.39;60.63
73780;SHT30;62093;37.614;15.072;2023-03-19T17:39:26;16.38;60.62
73780;SHT30;62093;37.614;15.072;2023-03-19T17:41:54;16.36;60.67
73780;SHT30;62093;37.614;15.072;2023-03-19T17:44:21;16.35;60.63
73780;SHT30;62093;37.614;15.072;2023-03-19T17:46:49;16.36;60.69
73780;SHT30;62093;37.614;15.072;2023-03-19T17:49:21;16.35;60.62
73780;SHT30;62093;37.614;15.072;2023-03-19T17:51:48;16.35;60.67
73780;SHT30;62093;37.614;15.072;2023-03-19T17:54:14;16.35;60.67
73780;SHT30;62093;37.614;15.072;2023-03-19T17:56:40;16.33;60.72
73780;SHT30;62093;37.614;15.072;2023-03-19T17:59:11;16.30;60.66
73780;SHT30;62093;37.614;15.072;2023-03-19T18:01:39;16.30;60.77
73780;SHT30;62093;37.614;15.072;2023-03-19T18:04:06;16.28;60.71
73780;SHT30;62093;37.614;15.072;2023-03-19T18:06:40;16.29;60.73
73780;SHT30;62093;37.614;15.072;2023-03-19T18:09:08;16.28;60.78